createdAt,value
2022-10-20T00:01:39.649Z,101317.41
2022-10-20T00:06:41.237Z,101317.81
2022-10-20T00:11:43.098Z,101320.69
2022-10-20T00:16:44.710Z,101325.66
2022-10-20T00:21:46.260Z,101313.44
2022-10-20T00:26:47.854Z,101312.22
2022-10-20T00:31:49.409Z,101305.59
2022-10-20T00:36:51.527Z,101298.06
2022-10-20T00:41:53.262Z,101292.16
2022-10-20T00:46:55.075Z,101287.41
2022-10-20T00:51:56.635Z,101297.38
2022-10-20T00:56:59.802Z,101284.97
2022-10-20T01:02:02.750Z,101284.41
2022-10-20T01:07:05.317Z,101277.47
2022-10-20T01:12:26.861Z,101280.56
2022-10-20T01:17:34.553Z,101272.81
2022-10-20T01:23:07.711Z,101273.13
2022-10-20T01:28:18.089Z,101270.63
2022-10-20T01:33:29.789Z,101271.81
2022-10-20T01:38:50.470Z,101275.59
2022-10-20T01:43:52.901Z,101272.34
2022-10-20T01:48:55.070Z,101276.59
2022-10-20T01:53:56.603Z,101285.41
2022-10-20T01:59:10.068Z,101283.81
2022-10-20T02:04:12.652Z,101283.47
2022-10-20T02:09:24.966Z,101263.38
2022-10-20T02:14:27.028Z,101266.97
2022-10-20T02:19:33.557Z,101275.56
2022-10-20T02:24:39.959Z,101273.31
2022-10-20T02:29:57.270Z,101289.44
2022-10-20T02:35:03.441Z,101288.38
2022-10-20T02:40:08.643Z,101283.53
2022-10-20T02:45:11.090Z,101296.41
2022-10-20T02:50:12.656Z,101286.75
2022-10-20T02:55:14.359Z,101281.59
2022-10-20T03:00:16.019Z,101282.75
2022-10-20T03:05:18.860Z,101277.66
2022-10-20T03:10:20.425Z,101276.03
2022-10-20T03:15:22.211Z,101272.84
2022-10-20T03:20:23.872Z,101285.44
2022-10-20T03:25:25.568Z,101292.53
2022-10-20T03:30:27.512Z,101288.44
2022-10-20T03:35:29.115Z,101300.22
2022-10-20T03:40:30.670Z,101302.06
2022-10-20T03:45:32.385Z,101295.16
2022-10-20T03:50:34.246Z,101294.41
2022-10-20T03:55:37.519Z,101291.88
2022-10-20T04:00:39.144Z,101286.38
2022-10-20T04:05:41.090Z,101284.78
2022-10-20T04:10:42.660Z,101280.66
2022-10-20T04:15:44.192Z,101281.91
2022-10-20T04:20:47.255Z,101294.63
2022-10-20T04:25:48.891Z,101289.66
2022-10-20T04:30:50.474Z,101288.31
2022-10-20T04:36:06.595Z,101292.69
2022-10-20T04:41:08.278Z,101267.59
2022-10-20T04:46:11.007Z,101260.38
2022-10-20T04:51:14.481Z,101254.41
2022-10-20T04:56:19.510Z,101252.91
2022-10-20T05:01:23.181Z,101263.19
2022-10-20T05:06:30.535Z,101254.66
2022-10-20T05:11:35.933Z,101245.16
2022-10-20T05:16:37.658Z,101250.44
2022-10-20T05:21:39.299Z,101254.34
2022-10-20T05:26:40.978Z,101249.47
2022-10-20T05:31:44.002Z,101246.78
2022-10-20T05:36:45.564Z,101249.00
2022-10-20T05:41:47.179Z,101247.50
2022-10-20T05:46:48.734Z,101234.75
2022-10-20T05:51:50.315Z,101240.97
2022-10-20T05:56:51.910Z,101248.75
2022-10-20T06:01:53.527Z,101262.28
2022-10-20T06:06:56.010Z,101253.13
2022-10-20T06:11:58.760Z,101257.75
2022-10-20T06:17:00.391Z,101269.44
2022-10-20T06:22:05.494Z,101255.25
2022-10-20T06:27:08.251Z,101259.78
2022-10-20T06:32:09.863Z,101277.22
2022-10-20T06:37:11.459Z,101272.47
2022-10-20T06:42:13.046Z,101269.50
2022-10-20T06:47:14.607Z,101267.97
2022-10-20T06:52:16.276Z,101266.78
2022-10-20T06:57:17.839Z,101270.41
2022-10-20T07:02:19.416Z,101271.47
2022-10-20T07:07:20.989Z,101280.63
2022-10-20T07:12:22.525Z,101275.63
2022-10-20T07:17:24.126Z,101271.69
2022-10-20T07:22:25.667Z,101273.31
2022-10-20T07:27:27.207Z,101260.75
2022-10-20T07:32:28.770Z,101270.03
2022-10-20T07:37:30.414Z,101269.69
2022-10-20T07:42:31.972Z,101261.13
2022-10-20T07:47:38.159Z,101264.63
2022-10-20T07:52:41.195Z,101264.91
2022-10-20T07:57:42.748Z,101257.66
2022-10-20T08:02:45.622Z,101258.09
2022-10-20T08:07:47.186Z,101249.03
2022-10-20T08:12:48.754Z,101243.38
2022-10-20T08:17:50.400Z,101248.72
2022-10-20T08:22:51.955Z,101247.94
2022-10-20T08:27:53.621Z,101256.78
2022-10-20T08:32:55.212Z,101242.28
2022-10-20T08:37:56.800Z,101236.81
2022-10-20T08:42:58.571Z,101244.47
2022-10-20T08:48:00.389Z,101233.03
2022-10-20T08:53:02.049Z,101235.44
2022-10-20T08:58:19.101Z,101232.25
2022-10-20T09:03:24.276Z,101225.19
2022-10-20T09:08:29.377Z,101219.72
2022-10-20T09:13:32.839Z,101222.72
2022-10-20T09:18:35.142Z,101219.22
2022-10-20T09:23:45.894Z,101215.56
2022-10-20T09:29:12.023Z,101226.56
2022-10-20T09:34:25.315Z,101217.66
2022-10-20T09:39:29.640Z,101216.44
2022-10-20T09:44:35.576Z,101196.19
2022-10-20T09:49:38.831Z,101198.94
2022-10-20T09:54:40.453Z,101210.34
2022-10-20T09:59:45.795Z,101211.66
2022-10-20T10:04:49.558Z,101195.22
2022-10-20T10:10:04.016Z,101194.41
2022-10-20T10:15:27.959Z,101184.16
2022-10-20T10:20:39.550Z,101188.94
2022-10-20T10:25:41.187Z,101177.34
2022-10-20T10:30:46.844Z,101171.72
2022-10-20T10:35:51.370Z,101169.66
2022-10-20T10:41:15.156Z,101164.56
2022-10-20T10:46:26.759Z,101155.34
2022-10-20T10:51:38.780Z,101156.34
2022-10-20T10:56:54.219Z,101139.88
2022-10-20T11:02:14.233Z,101136.41
2022-10-20T11:07:51.396Z,101129.91
2022-10-20T11:13:03.614Z,101119.28
2022-10-20T11:18:13.991Z,101112.78
2022-10-20T11:23:43.429Z,101105.59
2022-10-20T11:28:48.708Z,101097.91
2022-10-20T11:33:57.503Z,101087.22
2022-10-20T11:38:59.071Z,101080.63
2022-10-20T11:44:31.055Z,101056.16
2022-10-20T11:49:33.957Z,101052.94
2022-10-20T11:54:53.314Z,101045.78
2022-10-20T12:00:04.548Z,101033.44
2022-10-20T12:05:35.413Z,101030.81
2022-10-20T12:10:49.738Z,101016.47
2022-10-20T12:15:53.529Z,101022.69
2022-10-20T12:21:00.757Z,101022.47
2022-10-20T12:26:02.321Z,101004.31
2022-10-20T12:31:05.665Z,101007.88
2022-10-20T12:36:19.155Z,100996.53
2022-10-20T12:41:25.807Z,100981.66
2022-10-20T12:46:31.459Z,100987.44
2022-10-20T12:51:47.052Z,100966.44
2022-10-20T12:56:49.826Z,100968.75
2022-10-20T13:02:09.607Z,100968.78
2022-10-20T13:07:11.136Z,100956.16
2022-10-20T13:12:29.024Z,100955.94
2022-10-20T13:17:48.586Z,100948.47
2022-10-20T13:22:52.721Z,100944.69
2022-10-20T13:28:03.804Z,100939.66
2022-10-20T13:33:38.852Z,100935.31
2022-10-20T13:38:46.616Z,100935.53
2022-10-20T13:43:56.742Z,100935.28
2022-10-20T13:49:15.023Z,100926.78
2022-10-20T13:54:29.897Z,100916.38
2022-10-20T13:59:31.886Z,100909.84
2022-10-20T14:04:36.395Z,100901.19
2022-10-20T14:09:40.581Z,100912.00
2022-10-20T14:14:45.567Z,100912.25
2022-10-20T14:19:47.128Z,100899.84
2022-10-20T14:24:52.323Z,100890.66
2022-10-20T14:29:54.223Z,100881.13
2022-10-20T14:35:01.273Z,100886.88
2022-10-20T14:40:06.417Z,100886.78
2022-10-20T14:45:18.877Z,100885.16
2022-10-20T14:50:28.190Z,100877.22
2022-10-20T14:55:35.581Z,100861.97
2022-10-20T15:00:37.424Z,100857.72
2022-10-20T15:05:43.674Z,100866.25
2022-10-20T15:10:46.163Z,100854.97
2022-10-20T15:15:48.235Z,100857.16
2022-10-20T15:20:51.661Z,100840.44
2022-10-20T15:26:06.916Z,100840.06
2022-10-20T15:31:23.732Z,100836.81
2022-10-20T15:36:33.281Z,100846.69
2022-10-20T15:41:36.323Z,100831.22
2022-10-20T15:46:37.933Z,100839.22
2022-10-20T15:51:42.526Z,100825.63
2022-10-20T15:56:44.292Z,100828.63
2022-10-20T16:01:45.888Z,100824.94
2022-10-20T16:06:47.592Z,100819.31
2022-10-20T16:11:50.012Z,100827.50
2022-10-20T16:16:51.653Z,100828.88
2022-10-20T16:21:53.221Z,100816.88
2022-10-20T16:26:54.831Z,100808.66
2022-10-20T16:31:58.216Z,100813.16
2022-10-20T16:36:59.850Z,100823.66
2022-10-20T16:42:01.463Z,100817.00
2022-10-20T16:47:03.058Z,100807.03
2022-10-20T16:52:04.730Z,100806.66
2022-10-20T16:57:09.301Z,100812.94
2022-10-20T17:02:12.724Z,100815.63
2022-10-20T17:07:14.385Z,100812.66
2022-10-20T17:12:15.982Z,100812.09
2022-10-20T17:17:17.572Z,100803.91
2022-10-20T17:22:19.161Z,100804.25
2022-10-20T17:27:20.710Z,100809.25
2022-10-20T17:32:22.260Z,100806.63
2022-10-20T17:37:24.184Z,100804.63
2022-10-20T17:42:25.768Z,100809.06
2022-10-20T17:47:27.915Z,100798.28
2022-10-20T17:52:30.280Z,100798.69
2022-10-20T17:57:32.076Z,100789.50
2022-10-20T18:02:33.662Z,100785.97
2022-10-20T18:07:35.358Z,100771.31
2022-10-20T18:12:38.381Z,100767.47
2022-10-20T18:17:40.183Z,100756.50
2022-10-20T18:22:41.736Z,100742.66
2022-10-20T18:27:43.285Z,100727.56
2022-10-20T18:32:44.825Z,100725.13
2022-10-20T18:37:50.028Z,100727.66
2022-10-20T18:42:51.670Z,100731.78
2022-10-20T18:47:53.528Z,100728.31
2022-10-20T18:52:55.353Z,100726.25
2022-10-20T18:57:56.934Z,100742.22
2022-10-20T19:03:00.846Z,100732.56
2022-10-20T19:08:03.445Z,100734.31
2022-10-20T19:13:04.979Z,100728.16
2022-10-20T19:18:06.888Z,100715.47
2022-10-20T19:23:08.450Z,100707.41
2022-10-20T19:28:12.655Z,100695.81
2022-10-20T19:33:14.296Z,100692.66
2022-10-20T19:38:16.238Z,100686.78
2022-10-20T19:43:17.808Z,100683.63
2022-10-20T19:48:20.095Z,100680.72
2022-10-20T19:53:22.146Z,100690.13
2022-10-20T19:58:24.051Z,100673.16
2022-10-20T20:03:26.201Z,100675.16
2022-10-20T20:08:28.094Z,100674.31
2022-10-20T20:13:30.222Z,100679.59
2022-10-20T20:18:31.843Z,100673.41
2022-10-20T20:23:54.405Z,100666.88
2022-10-20T20:28:57.244Z,100669.22
2022-10-20T20:33:58.946Z,100667.50
2022-10-20T20:39:01.257Z,100668.38
2022-10-20T20:44:07.763Z,100658.22
2022-10-20T20:49:09.956Z,100660.47
2022-10-20T20:54:11.583Z,100646.19
2022-10-20T20:59:13.479Z,100648.88
2022-10-20T21:04:15.945Z,100646.88
2022-10-20T21:09:17.554Z,100656.75
2022-10-20T21:14:19.121Z,100664.00
2022-10-20T21:19:20.673Z,100649.31
2022-10-20T21:24:22.213Z,100637.56
2022-10-20T21:29:23.945Z,100632.69
2022-10-20T21:34:26.334Z,100621.78
2022-10-20T21:39:27.984Z,100608.72
2022-10-20T21:44:29.632Z,100603.06
2022-10-20T21:49:31.687Z,100584.13
2022-10-20T21:54:33.359Z,100583.50
2022-10-20T21:59:34.890Z,100580.81
2022-10-20T22:04:36.434Z,100582.41
2022-10-20T22:09:38.064Z,100575.72
2022-10-20T22:14:42.531Z,100563.09
2022-10-20T22:19:46.845Z,100556.06
2022-10-20T22:24:48.462Z,100558.56
2022-10-20T22:29:51.411Z,100566.78
2022-10-20T22:34:54.568Z,100569.16
2022-10-20T22:39:56.141Z,100569.47
2022-10-20T22:44:57.699Z,100569.84
2022-10-20T22:49:59.284Z,100567.31
2022-10-20T22:55:00.834Z,100562.47
2022-10-20T23:00:04.883Z,100562.56
2022-10-20T23:05:06.686Z,100547.69
2022-10-20T23:10:08.605Z,100541.25
2022-10-20T23:15:10.589Z,100540.91
2022-10-20T23:20:12.236Z,100529.16
2022-10-20T23:25:14.021Z,100518.78
2022-10-20T23:30:15.572Z,100524.13
2022-10-20T23:35:17.124Z,100518.06
2022-10-20T23:40:18.692Z,100510.94
2022-10-20T23:45:20.309Z,100513.41
2022-10-20T23:50:23.505Z,100510.94
2022-10-20T23:55:25.124Z,100512.34
